Time;durP1;ratioP1;P1;durP2;ratioP2;P2;SDS_P1;SDS_P2;PMS_P1;PMS_P2;Temp;Humidity;BMP_temperature;BMP_pressure;BME280_temperature;BME280_humidity;BME280_pressure;Samples;Min_cycle;Max_cycle;Signal;HPM_P1;HPM_P2
2021/12/27 00:02:15;;;;;;;;;;;;;;;-144.99;55.40;52717.16;5048394;28;19940;-60
2021/12/27 00:04:41;;;;;;;;;;;;;;;-144.99;55.74;52729.38;4698992;28;10000408;-60
2021/12/27 00:07:10;;;;;;;;;;;;;;;-144.99;55.27;52741.63;5048145;28;19929;-59
2021/12/27 00:09:36;;;;;;;;;;;;;;;-144.99;55.95;52729.38;5045852;28;19921;-59
2021/12/27 00:12:03;;;;;;;;;;;;;;;-144.99;55.52;52700.84;5045237;28;19930;-58
2021/12/27 00:14:29;;;;;;;;;;;;;;;-144.99;55.58;52733.47;5049395;28;19921;-59
2021/12/27 00:16:56;;;;;;;;;;;;;;;-144.99;55.26;52766.09;5049007;28;19928;-60
2021/12/27 00:19:22;;;;;;;;;;;;;;;-144.99;56.10;52721.22;5050193;28;20426;-60
2021/12/27 00:21:48;;;;;;;;;;;;;;;-144.99;55.87;52737.53;5047727;28;19980;-60
2021/12/27 00:24:16;;;;;;;;;;;;;;;-144.99;55.24;52745.69;5047818;28;19921;-60
2021/12/27 00:26:44;;;;;;;;;;;;;;;-144.99;55.30;52737.53;5051302;28;20409;-60
2021/12/27 00:29:10;;;;;;;;;;;;;;;-144.99;55.24;52741.63;5056158;28;20147;-59
2021/12/27 00:31:37;;;;;;;;;;;;;;;-144.99;55.07;52770.16;5054493;28;19921;-59
2021/12/27 00:34:03;;;;;;;;;;;;;;;-144.99;54.88;52745.69;5053326;28;20019;-59
2021/12/27 00:36:29;;;;;;;;;;;;;;;-144.99;54.98;52782.38;5051421;28;20396;-59
2021/12/27 00:38:56;;;;;;;;;;;;;;;-144.99;55.13;52709.00;5048068;28;20325;-59
2021/12/27 00:41:23;;;;;;;;;;;;;;;-144.99;55.33;52759.97;5048392;28;19921;-59
2021/12/27 00:43:50;;;;;;;;;;;;;;;-144.99;55.42;52711.03;5053920;28;19921;-59
2021/12/27 00:46:16;;;;;;;;;;;;;;;-144.99;55.31;52757.94;5053672;28;19927;-61
2021/12/27 00:48:42;;;;;;;;;;;;;;;-144.99;55.28;52721.22;5049968;28;19931;-61
2021/12/27 00:51:10;;;;;;;;;;;;;;;-144.99;55.64;52751.81;5049778;28;20171;-62
2021/12/27 00:53:36;;;;;;;;;;;;;;;-144.99;55.57;52762.00;5048684;28;20423;-61
2021/12/27 00:56:02;;;;;;;;;;;;;;;-144.99;55.49;52749.78;5048593;28;19921;-61
2021/12/27 00:58:30;;;;;;;;;;;;;;;-144.99;55.31;52704.94;5050433;28;19928;-61
2021/12/27 01:00:57;;;;;;;;;;;;;;;-144.99;55.53;52739.56;5050601;28;19928;-61
2021/12/27 01:03:23;;;;;;;;;;;;;;;-144.99;55.52;52749.78;5048384;28;19920;-60
2021/12/27 01:05:49;;;;;;;;;;;;;;;-144.99;55.98;52717.16;5050859;28;19947;-60
2021/12/27 01:08:17;;;;;;;;;;;;;;;-144.99;56.36;52759.97;5050347;28;19932;-61
2021/12/27 01:13:36;;;;;;;;;;;;;;;-144.99;55.82;52741.63;5035724;28;19920;-60
2021/12/27 01:16:11;;;;;;;;;;;;;;;-144.99;55.79;52729.38;5050518;28;19920;-60
2021/12/27 01:18:38;;;;;;;;;;;;;;;-144.99;55.48;52704.94;5045897;28;20322;-59
2021/12/27 01:21:05;;;;;;;;;;;;;;;-144.99;55.91;52725.31;5053531;28;19920;-58
2021/12/27 01:23:31;;;;;;;;;;;;;;;-144.99;56.00;52757.94;5051334;28;19921;-58
2021/12/27 01:25:58;;;;;;;;;;;;;;;-144.99;55.87;52733.47;5053896;28;19920;-59
2021/12/27 01:28:24;;;;;;;;;;;;;;;-144.99;56.14;52725.31;5053788;28;19931;-62
2021/12/27 01:30:51;;;;;;;;;;;;;;;-144.99;56.05;52751.81;5053534;28;19921;-59
2021/12/27 01:33:19;;;;;;;;;;;;;;;-144.99;56.18;52770.16;5051764;28;20369;-59
2021/12/27 01:35:46;;;;;;;;;;;;;;;-144.99;56.04;52721.22;5053470;28;19927;-59
2021/12/27 01:38:13;;;;;;;;;;;;;;;-144.99;56.32;52753.84;5069019;22;19943;-61
2021/12/27 01:40:40;;;;;;;;;;;;;;;-144.99;56.42;52753.84;5053513;28;19920;-61
2021/12/27 01:43:09;;;;;;;;;;;;;;;-144.99;56.41;52794.63;5052665;28;20012;-62
2021/12/27 01:45:37;;;;;;;;;;;;;;;-144.99;57.09;52741.63;5064988;28;19924;-61
2021/12/27 01:48:05;;;;;;;;;;;;;;;-144.99;56.99;52757.94;5066131;28;19929;-61
2021/12/27 01:50:33;;;;;;;;;;;;;;;-144.99;56.79;52753.84;5066915;28;20130;-62
2021/12/27 01:52:59;;;;;;;;;;;;;;;-144.99;57.28;52733.47;5075417;28;19909;-61
2021/12/27 01:55:25;;;;;;;;;;;;;;;-144.99;57.00;52755.88;5066497;28;19940;-63
2021/12/27 01:57:52;;;;;;;;;;;;;;;-144.99;57.05;52729.38;5076366;28;20004;-61
2021/12/27 02:00:18;;;;;;;;;;;;;;;-144.99;57.33;52747.72;5076109;28;19951;-61
2021/12/27 02:02:45;;;;;;;;;;;;;;;-144.99;57.56;52713.09;5074003;28;19931;-61
2021/12/27 02:05:12;;;;;;;;;;;;;;;-144.99;57.56;52717.16;5072354;28;19947;-61
2021/12/27 02:07:39;;;;;;;;;;;;;;;-144.99;58.07;52762.00;5069668;28;19976;-62
2021/12/27 02:10:06;;;;;;;;;;;;;;;-144.99;58.30;52737.53;5053205;28;19929;-63
2021/12/27 02:12:33;;;;;;;;;;;;;;;-144.99;58.43;52721.22;5053551;28;19972;-63
2021/12/27 02:15:07;;;;;;;;;;;;;;;-144.99;59.26;52729.38;5049963;28;20882;-63
2021/12/27 02:17:33;;;;;;;;;;;;;;;-144.99;58.31;52721.22;5052787;28;19935;-63
2021/12/27 02:20:01;;;;;;;;;;;;;;;-144.99;58.74;52762.00;5051735;28;19925;-63
2021/12/27 02:22:29;;;;;;;;;;;;;;;-144.99;58.72;52731.44;5051838;28;20168;-63
2021/12/27 02:24:55;;;;;;;;;;;;;;;-144.99;58.64;52733.47;5048234;28;19924;-63
2021/12/27 02:27:21;;;;;;;;;;;;;;;-144.99;58.70;52749.78;5051926;28;20445;-63
2021/12/27 02:29:48;;;;;;;;;;;;;;;-144.99;59.54;52749.78;5046711;28;19925;-63
2021/12/27 02:32:14;;;;;;;;;;;;;;;-144.99;59.53;52709.00;5052278;28;19975;-62
2021/12/27 02:34:40;;;;;;;;;;;;;;;-144.99;59.19;52711.03;5050284;28;20438;-62
2021/12/27 02:37:08;;;;;;;;;;;;;;;-144.99;60.20;52729.38;5052944;28;19924;-62
2021/12/27 02:39:34;;;;;;;;;;;;;;;-144.99;60.82;52729.38;5060024;28;20427;-62
2021/12/27 02:42:01;;;;;;;;;;;;;;;-144.99;59.76;52759.97;5050601;28;20292;-61
2021/12/27 02:44:27;;;;;;;;;;;;;;;-144.99;59.63;52743.66;5051055;28;19925;-61
2021/12/27 02:46:54;;;;;;;;;;;;;;;-144.99;59.87;52757.94;5046182;28;19925;-62
2021/12/27 02:49:20;;;;;;;;;;;;;;;-144.99;59.92;52692.69;5051563;28;20401;-62
2021/12/27 02:51:46;;;;;;;;;;;;;;;-144.99;60.14;52700.84;5052216;28;20443;-62
2021/12/27 02:54:14;;;;;;;;;;;;;;;-144.99;60.35;52721.22;5051372;28;19925;-62
2021/12/27 02:56:40;;;;;;;;;;;;;;;-144.99;60.57;52709.00;5063154;28;19913;-61
2021/12/27 02:59:07;;;;;;;;;;;;;;;-144.99;60.16;52741.63;5068518;28;19924;-61
2021/12/27 03:01:33;;;;;;;;;;;;;;;-144.99;59.73;52704.94;5059580;28;19928;-61
2021/12/27 03:03:59;;;;;;;;;;;;;;;-144.99;60.30;52717.16;5053031;28;19947;-61
2021/12/27 03:06:26;;;;;;;;;;;;;;;-144.99;60.63;52745.69;5051118;28;19929;-62
2021/12/27 03:08:52;;;;;;;;;;;;;;;-144.99;61.40;52774.22;5051664;28;20397;-61
2021/12/27 03:11:20;;;;;;;;;;;;;;;-144.99;60.88;52717.16;5059846;28;19924;-62
2021/12/27 03:13:48;;;;;;;;;;;;;;;-144.99;60.70;52690.66;5073347;28;19949;-60
2021/12/27 03:16:16;;;;;;;;;;;;;;;-144.99;60.64;52723.28;5066894;28;19959;-60
2021/12/27 03:18:45;;;;;;;;;;;;;;;-144.99;60.52;52729.38;5071648;28;19924;-61
2021/12/27 03:21:11;;;;;;;;;;;;;;;-144.99;60.62;52721.22;5069668;28;19913;-60
2021/12/27 03:23:38;;;;;;;;;;;;;;;-144.99;61.16;52700.84;5070245;28;19913;-61
2021/12/27 03:26:05;;;;;;;;;;;;;;;-144.99;60.97;52729.38;5056109;28;19925;-61
2021/12/27 03:28:34;;;;;;;;;;;;;;;-144.99;61.29;52727.34;5051039;28;20293;-61
2021/12/27 03:31:01;;;;;;;;;;;;;;;-144.99;61.02;52721.22;5052201;28;19925;-61
2021/12/27 03:33:28;;;;;;;;;;;;;;;-144.99;60.82;52743.66;5051345;28;20328;-63
2021/12/27 03:36:01;;;;;;;;;;;;;;;-144.99;61.83;52721.22;5052462;28;19925;-61
2021/12/27 03:38:29;;;;;;;;;;;;;;;-144.99;61.93;52770.16;5067541;28;19929;-62
2021/12/27 03:40:55;;;;;;;;;;;;;;;-144.99;61.58;52721.22;5072410;28;20015;-63
2021/12/27 03:43:22;;;;;;;;;;;;;;;-144.99;60.84;52700.84;5073807;28;19935;-64
2021/12/27 03:45:50;;;;;;;;;;;;;;;-144.99;61.05;52737.53;5072175;28;19925;-64
2021/12/27 03:48:16;;;;;;;;;;;;;;;-144.99;61.12;52700.84;5048133;28;19939;-62
2021/12/27 03:50:43;;;;;;;;;;;;;;;-144.99;61.30;52753.84;5050325;28;20508;-61
2021/12/27 03:53:09;;;;;;;;;;;;;;;-144.99;61.27;52723.28;5047187;28;20015;-62
2021/12/27 03:55:36;;;;;;;;;;;;;;;-144.99;61.40;52700.84;5048302;28;19924;-62
2021/12/27 03:58:08;;;;;;;;;;;;;;;-144.99;61.52;52741.63;5049049;28;19929;-62
2021/12/27 04:00:47;;;;;;;;;;;;;;;-144.99;61.29;52725.31;5050752;28;19978;-62
2021/12/27 04:03:15;;;;;;;;;;;;;;;-144.99;61.29;52741.63;5051138;28;19928;-61
2021/12/27 04:05:42;;;;;;;;;;;;;;;-144.99;61.81;52721.22;5050858;28;19924;-63
2021/12/27 04:08:10;;;;;;;;;;;;;;;-144.99;62.09;52737.53;5043692;28;19932;-62
2021/12/27 04:10:37;;;;;;;;;;;;;;;-144.99;63.12;52759.97;5043545;28;19933;-63
2021/12/27 04:13:04;;;;;;;;;;;;;;;-144.99;63.04;52762.00;5050959;28;19990;-62
2021/12/27 04:15:30;;;;;;;;;;;;;;;-144.99;63.08;52700.84;5050400;28;19925;-63
2021/12/27 04:17:57;;;;;;;;;;;;;;;-144.99;63.33;52729.38;5049944;28;19960;-62
2021/12/27 04:20:25;;;;;;;;;;;;;;;-144.99;63.58;52713.09;5049635;28;19924;-63
2021/12/27 04:22:51;;;;;;;;;;;;;;;-144.99;63.98;52731.44;5049882;28;20408;-67
2021/12/27 04:25:18;;;;;;;;;;;;;;;-144.99;65.03;52704.94;5049967;28;19931;-61
2021/12/27 04:27:45;;;;;;;;;;;;;;;-144.99;64.79;52733.47;5050284;28;20349;-62
2021/12/27 04:30:12;;;;;;;;;;;;;;;-144.99;64.64;52709.00;5049037;28;19925;-62
2021/12/27 04:32:38;;;;;;;;;;;;;;;-144.99;64.64;52717.16;5051244;28;19929;-62
2021/12/27 04:35:05;;;;;;;;;;;;;;;-144.99;65.18;52741.63;5066365;28;19935;-62
2021/12/27 04:37:32;;;;;;;;;;;;;;;-144.99;65.54;52692.69;5051905;28;20195;-62
2021/12/27 04:39:59;;;;;;;;;;;;;;;-144.99;65.36;52688.63;5049576;28;19933;-62
2021/12/27 04:42:27;;;;;;;;;;;;;;;-144.99;65.30;52725.31;5051223;28;19924;-64
2021/12/27 04:44:53;;;;;;;;;;;;;;;-144.99;65.61;52688.63;5049508;28;19931;-65
2021/12/27 04:47:21;;;;;;;;;;;;;;;-144.99;65.71;52704.94;5048824;28;19933;-64
2021/12/27 04:49:48;;;;;;;;;;;;;;;-144.99;66.12;52731.44;5049741;28;19924;-64
2021/12/27 04:52:14;;;;;;;;;;;;;;;-144.99;65.63;52696.78;5050297;28;20301;-64
2021/12/27 04:54:42;;;;;;;;;;;;;;;-144.99;66.32;52717.16;5050941;28;19936;-65
2021/12/27 04:57:09;;;;;;;;;;;;;;;-144.99;65.99;52717.16;5051703;28;19964;-64
2021/12/27 04:59:36;;;;;;;;;;;;;;;-144.99;65.79;52713.09;5047683;28;19933;-64
2021/12/27 05:02:03;;;;;;;;;;;;;;;-144.99;66.48;52713.09;5053912;28;19936;-69
2021/12/27 05:04:29;;;;;;;;;;;;;;;-144.99;65.79;52709.00;5053640;28;19924;-65
2021/12/27 05:06:56;;;;;;;;;;;;;;;-144.99;65.86;52725.31;5053741;28;19931;-65
2021/12/27 05:09:22;;;;;;;;;;;;;;;-144.99;66.05;52700.84;5051181;28;20077;-65
2021/12/27 05:11:50;;;;;;;;;;;;;;;-144.99;67.16;52733.47;5053676;28;20032;-64
2021/12/27 05:14:16;;;;;;;;;;;;;;;-144.99;66.65;52741.63;5054325;28;20295;-65
2021/12/27 05:16:43;;;;;;;;;;;;;;;-144.99;66.48;52729.38;5053938;28;19960;-64
2021/12/27 05:19:09;;;;;;;;;;;;;;;-144.99;67.70;52737.53;5052520;28;19929;-64
2021/12/27 05:21:35;;;;;;;;;;;;;;;-144.99;66.62;52733.47;5052770;28;19925;-62
2021/12/27 05:24:02;;;;;;;;;;;;;;;-144.99;66.91;52721.22;5050730;28;20412;-62
2021/12/27 05:26:28;;;;;;;;;;;;;;;-144.99;66.88;52698.81;5053453;28;19925;-63
2021/12/27 05:28:56;;;;;;;;;;;;;;;-144.99;67.02;52733.47;5052006;28;20366;-63
2021/12/27 05:31:22;;;;;;;;;;;;;;;-144.99;67.53;52721.22;5054765;28;20266;-63
2021/12/27 05:33:48;;;;;;;;;;;;;;;-144.99;67.66;52713.09;5053148;28;20131;-64
2021/12/27 05:36:15;;;;;;;;;;;;;;;-144.99;67.64;52737.53;5054111;28;19925;-64
2021/12/27 05:38:41;;;;;;;;;;;;;;;-144.99;67.84;52702.88;5047992;28;20172;-64
2021/12/27 05:41:08;;;;;;;;;;;;;;;-144.99;67.65;52737.53;5051964;28;20022;-64
2021/12/27 05:43:34;;;;;;;;;;;;;;;-144.99;67.67;52749.78;5053379;28;20264;-63
2021/12/27 05:46:03;;;;;;;;;;;;;;;-144.99;67.63;52729.38;5053291;28;19999;-64
2021/12/27 05:48:29;;;;;;;;;;;;;;;-144.99;67.71;52688.63;5050231;28;19935;-63
2021/12/27 05:50:56;;;;;;;;;;;;;;;-144.99;68.20;52725.31;5053280;28;19947;-63
2021/12/27 05:53:23;;;;;;;;;;;;;;;-144.99;68.29;52725.31;5053278;28;19925;-63
2021/12/27 05:55:50;;;;;;;;;;;;;;;-144.99;69.19;52725.31;5050912;28;20209;-62
2021/12/27 05:58:17;;;;;;;;;;;;;;;-144.99;68.55;52700.84;5052378;28;19932;-62
2021/12/27 06:00:43;;;;;;;;;;;;;;;-144.99;68.95;52721.22;5063873;28;19935;-62
2021/12/27 06:03:11;;;;;;;;;;;;;;;-144.99;69.09;52739.56;5077338;28;19917;-62
2021/12/27 06:05:38;;;;;;;;;;;;;;;-144.99;69.30;52717.16;5071853;28;19925;-62
2021/12/27 06:08:04;;;;;;;;;;;;;;;-144.99;70.97;52688.63;5076386;28;19924;-62
2021/12/27 06:10:31;;;;;;;;;;;;;;;-144.99;70.75;52692.69;5066504;28;19924;-62
2021/12/27 06:12:57;;;;;;;;;;;;;;;-144.99;71.72;52733.47;5052771;28;19986;-62
2021/12/27 06:15:23;;;;;;;;;;;;;;;-144.99;71.51;52725.31;5052817;28;19924;-61
2021/12/27 06:17:50;;;;;;;;;;;;;;;-144.99;72.81;52733.47;5053191;28;20023;-62
2021/12/27 06:20:18;;;;;;;;;;;;;;;-144.99;73.15;52704.94;5049995;28;20405;-63
2021/12/27 06:22:47;;;;;;;;;;;;;;;-144.99;73.93;52721.22;5052013;28;20193;-62
2021/12/27 06:25:13;;;;;;;;;;;;;;;-144.99;74.43;52709.00;5046058;28;19925;-62
2021/12/27 06:27:39;;;;;;;;;;;;;;;-144.99;75.10;52737.53;5052905;28;19929;-62
2021/12/27 06:30:10;;;;;;;;;;;;;;;-144.99;76.24;52676.38;5051183;28;20279;-62
2021/12/27 06:32:36;;;;;;;;;;;;;;;-144.99;77.37;52704.94;5053331;28;19924;-62
2021/12/27 06:35:03;;;;;;;;;;;;;;;-144.99;78.50;52729.38;5051195;28;19925;-62
2021/12/27 06:37:30;;;;;;;;;;;;;;;-144.99;78.72;52715.13;5048617;28;19933;-62
2021/12/27 06:39:57;;;;;;;;;;;;;;;-144.99;79.49;52676.38;5048924;28;20195;-62
2021/12/27 06:42:23;;;;;;;;;;;;;;;-144.99;80.29;52704.94;5051831;28;20382;-61
2021/12/27 06:44:49;;;;;;;;;;;;;;;-144.99;81.20;52749.78;5052470;28;19928;-62
2021/12/27 06:47:16;;;;;;;;;;;;;;;-144.99;81.84;52721.22;5070262;28;19931;-62
2021/12/27 06:49:42;;;;;;;;;;;;;;;-144.99;82.66;52745.69;5075002;28;19931;-62
2021/12/27 06:52:11;;;;;;;;;;;;;;;-144.99;82.97;52688.63;5073052;28;19968;-61
2021/12/27 06:54:39;;;;;;;;;;;;;;;-144.99;82.85;52757.94;5074601;28;19936;-61
2021/12/27 06:57:05;;;;;;;;;;;;;;;-144.99;82.74;52725.31;5061471;28;19932;-62
2021/12/27 06:59:32;;;;;;;;;;;;;;;-144.99;82.54;52686.59;5050583;28;19925;-62
2021/12/27 07:01:58;;;;;;;;;;;;;;;-144.99;82.30;52725.31;5052046;28;19929;-64
2021/12/27 07:04:26;;;;;;;;;;;;;;;-144.99;82.62;52733.47;5051739;28;19932;-66
2021/12/27 07:06:53;;;;;;;;;;;;;;;-144.99;82.34;52700.84;5051460;28;20024;-63
2021/12/27 07:09:19;;;;;;;;;;;;;;;-144.99;82.44;52727.34;5047217;28;19933;-63
2021/12/27 07:11:47;;;;;;;;;;;;;;;-144.99;83.46;52709.00;5051737;28;19924;-65
2021/12/27 07:14:13;;;;;;;;;;;;;;;-144.99;83.48;52721.22;5051623;28;19925;-65
2021/12/27 07:16:40;;;;;;;85.80;52.03;;;;;;;-144.99;83.99;52682.50;5049356;28;24507;-65
2021/12/27 07:19:06;;;;;;;;;;;;;;;-144.99;84.93;52717.16;5048482;28;20634;-65
2021/12/27 07:21:33;;;;;;;;;;;;;;;-144.99;83.55;52704.94;5050851;28;20304;-65
2021/12/27 07:23:59;;;;;;;;;;;;;;;-144.99;85.05;52717.16;5050060;28;19927;-65
2021/12/27 07:26:25;;;;;;;;;;;;;;;-144.99;85.10;52719.19;5051306;28;19932;-65
2021/12/27 07:28:53;;;;;;;;;;;;;;;-144.99;85.07;52717.16;5051049;28;19921;-65
2021/12/27 07:31:19;;;;;;;;;;;;;;;-144.99;83.99;52702.88;5048042;28;19928;-65
2021/12/27 07:33:46;;;;;;;;;;;;;;;-144.99;83.76;52737.53;5054500;28;19920;-64
2021/12/27 07:36:12;;;;;;;;;;;;;;;-144.99;83.81;52713.09;5055939;28;19925;-65
2021/12/27 07:38:39;;;;;;;;;;;;;;;-144.99;83.72;52717.16;5082260;22;19920;-59
2021/12/27 07:41:06;;;;;;;;;;;;;;;-144.99;83.87;52721.22;5089123;28;19942;-62
2021/12/27 07:43:32;;;;;;;;;;;;;;;-144.99;83.49;52737.53;5087392;28;19930;-62
2021/12/27 07:46:00;;;;;;;;;;;;;;;-144.99;83.98;52700.84;5097076;28;19920;-62
2021/12/27 07:48:26;;;;;;;;;;;;;;;-144.99;83.95;52704.94;5095173;28;19927;-62
2021/12/27 07:50:53;;;;;;;;;;;;;;;-144.99;83.82;52704.94;5091041;28;20367;-62
2021/12/27 07:53:19;;;;;;;;;;;;;;;-144.99;83.76;52704.94;5087344;28;19927;-59
2021/12/27 07:55:45;;;;;;;;;;;;;;;-144.99;83.87;52723.28;5090192;28;19920;-59
2021/12/27 07:58:12;;;;;;;;;;;;;;;-144.99;84.61;52733.47;5097031;28;19947;-60
2021/12/27 08:00:39;;;;;;;;;;;;;;;-144.99;84.26;52729.38;5091019;28;20388;-60
2021/12/27 08:03:06;;;;;;;;;;;;;;;-144.99;84.39;52700.84;5089061;28;19951;-63
2021/12/27 08:05:33;;;;;;;;;;;;;;;-144.99;84.95;52725.31;5090958;28;20010;-62
2021/12/27 08:07:59;;;;;;;;;;;;;;;-144.99;85.17;52704.94;5091135;28;19931;-62
2021/12/27 08:10:26;;;;;;;;;;;;;;;-144.99;84.56;52651.94;5090415;28;19924;-62
2021/12/27 08:12:52;;;;;;;;;;;;;;;-144.99;85.26;52721.22;5089501;28;20422;-62
2021/12/27 08:15:18;;;;;;;;;;;;;;;-144.99;85.00;52709.00;5090689;28;20387;-62
2021/12/27 08:17:45;;;;;;;;;;;;;;;-144.99;84.29;52696.78;5085813;28;19923;-62
2021/12/27 08:20:13;;;;;;;;;;;;;;;-144.99;84.08;52717.16;5082865;28;19931;-62
2021/12/27 08:22:39;;;;;;;;;;;;;;;-144.99;84.22;52692.69;5100355;28;20014;-62
2021/12/27 08:25:07;;;;;;;;;;;;;;;-144.99;85.37;52668.22;5103015;28;19979;-62
2021/12/27 08:27:34;;;;;;;;;;;;;;;-144.99;84.72;52676.38;5101417;28;20010;-62
2021/12/27 08:30:04;;;;;;;;;;;;;;;-144.99;84.59;52688.63;5094911;28;19920;-61
2021/12/27 08:32:31;;;;;;;;;;;;;;;-144.99;83.85;52700.84;5092838;28;20003;-62
2021/12/27 08:34:57;;;;;;;;;;;;;;;-144.99;84.31;52717.16;5095114;28;19920;-62
2021/12/27 08:37:25;;;;;;;;;;;;;;;-144.99;83.69;52700.84;5095748;28;19920;-61
2021/12/27 08:39:51;;;;;;;;;;;;;;;-144.99;83.98;52709.00;5094589;28;19928;-62
2021/12/27 08:42:17;;;;;;;;;;;;;;;-144.99;83.97;52688.63;5092661;28;20302;-63
2021/12/27 08:44:44;;;;;;;;;;;;;;;-144.99;83.83;52731.44;5099488;28;19923;-63
2021/12/27 08:47:13;;;;;;;;;;;;;;;-144.99;83.59;52684.53;5094472;28;20005;-62
2021/12/27 08:49:40;;;;;;;;;;;;;;;-144.99;83.68;52715.13;5094346;28;19920;-62
2021/12/27 08:52:06;;;;;;;;;;;;;;;-144.99;83.48;52684.53;5092053;28;19920;-61
2021/12/27 08:54:34;;;;;;;;;;;;;;;-144.99;83.93;52696.78;5093740;28;19920;-62
2021/12/27 08:57:00;;;;;;;;;;;;;;;-144.99;83.80;52692.69;5093876;28;20088;-62
2021/12/27 08:59:27;;;;;;;;;;;;;;;-144.99;83.86;52709.00;5087836;28;19924;-62
2021/12/27 09:01:53;;;;;;;;;;;;;;;-144.99;83.73;52704.94;5088660;28;19957;-61
2021/12/27 09:04:19;;;;;;;;;;;;;;;-144.99;84.04;52741.63;5086089;28;19924;-62
2021/12/27 09:06:46;;;;;;;;;;;;;;;-144.99;83.51;52684.53;5085424;28;19924;-62
2021/12/27 09:09:12;;;;;;;;;;;;;;;-144.99;83.78;52668.22;5093784;28;19931;-63
2021/12/27 09:11:40;;;;;;;;;;;;;;;-144.99;84.87;52692.69;5092172;28;19939;-61
2021/12/27 09:14:06;;;;;;;;;;;;;;;-144.99;88.23;52702.88;5089355;28;20352;-70
2021/12/27 09:16:33;;;;;;;;;;;;;;;-144.99;88.14;52704.94;5091600;28;20181;-71
2021/12/27 09:18:59;;;;;;;;;;;;;;;-144.99;86.36;52694.72;5094069;28;19920;-71
2021/12/27 09:21:26;;;;;;;;;;;;;;;-144.99;83.45;52619.31;5094888;28;19926;-71
2021/12/27 09:23:52;;;;;;;;;;;;;;;-144.99;83.18;52711.03;5093885;28;19931;-70
2021/12/27 09:26:18;;;;;;;;;;;;;;;-144.99;82.54;52706.97;5094408;28;19920;-70
2021/12/27 09:28:46;;;;;;;;;;;;;;;-144.99;83.00;52692.69;5094792;28;19927;-69
2021/12/27 09:31:13;;;;;;;;;;;;;;;-144.99;83.13;52684.53;5090920;28;19927;-71
2021/12/27 09:33:40;;;;;;;;;;;;;;;-144.99;83.55;52717.16;5108533;28;20216;-69
2021/12/27 09:36:06;;;;;;;;;;;;;;;-144.99;83.69;52690.66;5098093;28;19920;-68
2021/12/27 09:38:32;;;;;;;;;;;;;;;-144.99;83.36;52692.69;5091606;28;19919;-69
2021/12/27 09:40:59;;;;;;;;;;;;;;;-144.99;82.99;52749.78;5092856;28;19931;-69
2021/12/27 09:43:26;;;;;;;;;;;;;;;-144.99;83.64;52698.81;5094489;28;19920;-69
2021/12/27 09:45:54;;;;;;;;;;;;;;;-144.99;83.42;52709.00;5094500;28;19960;-68
2021/12/27 09:48:20;;;;;;;;;;;;;;;-144.99;83.39;52639.69;5094262;28;19920;-69
2021/12/27 09:50:48;;;;;;;;;;;;;;;-144.99;84.27;52696.78;5093847;28;20445;-69
2021/12/27 09:53:15;;;;;;;;;;;;;;;-144.99;83.85;52704.94;5080001;28;19927;-69
2021/12/27 09:55:41;;;;;;;;;;;;;;;-144.99;84.00;52713.09;5086601;28;20363;-70
2021/12/27 09:58:08;;;;;;;;;;;;;;;-144.99;84.26;52709.00;5093530;28;19927;-69
2021/12/27 10:00:36;;;;;;;;;;;;;;;-144.99;84.39;52723.28;5093976;28;19920;-70
2021/12/27 10:03:03;;;;;;;;;;;;;;;-144.99;84.63;52713.09;5094591;28;20432;-70
2021/12/27 10:05:30;;;;;;;;;;;;;;;-144.99;84.29;52656.00;5094289;28;19920;-70
2021/12/27 10:07:57;;;;;;;;;;;;;;;-144.99;83.97;52668.22;5095342;28;19920;-69
2021/12/27 10:10:24;;;;;;;;;;;;;;;-144.99;84.15;52662.13;5095533;28;19920;-69
2021/12/27 10:12:50;;;;;;;;;;;;;;;-144.99;83.62;52641.72;5094817;28;19976;-70
2021/12/27 10:15:18;;;;;;;;;;;;;;;-144.99;83.97;52700.84;5093455;28;19926;-72
2021/12/27 10:17:45;;;;;;;;;;;;;;;-144.99;84.65;52680.47;5092836;28;19927;-69
2021/12/27 10:20:15;;;;;;;;;;;;;;;-144.99;83.75;52709.00;5093002;28;19931;-69
2021/12/27 10:22:42;;;;;;;;;;;;;;;-144.99;84.53;52721.22;5089978;28;19935;-70
2021/12/27 10:25:09;;;;;;;;;;;;;;;-144.99;84.15;52717.16;5093038;28;19920;-70
2021/12/27 10:27:36;;;;;;;;;;;;;;;-144.99;84.12;52700.84;5106015;28;19927;-69
2021/12/27 10:30:09;;;;;;;;;;;;;;;-144.99;84.28;52702.88;5109131;28;20308;-69
2021/12/27 10:32:35;;;;;;;;;;;;;;;-144.99;84.58;52717.16;5101992;28;19927;-70
2021/12/27 10:35:05;;;;;;;;;;;;;;;-144.99;84.39;52664.16;5093458;28;19927;-71
2021/12/27 10:37:35;;;;;;;;;;;;;;;-144.99;85.14;52676.38;5094733;28;20095;-70
2021/12/27 10:40:02;;;;;;;;;;;;;;;-144.99;84.71;52700.84;5092809;28;19920;-70
2021/12/27 10:42:29;;;;;;;;;;;;;;;-144.99;85.23;52684.53;5092927;28;19923;-70
2021/12/27 10:44:58;;;;;;;;;;;;;;;-144.99;85.40;52694.72;5093473;28;19920;-69
2021/12/27 10:47:25;;;;;;;;;;;;;;;-144.99;85.86;52700.84;5092882;28;19927;-69
2021/12/27 10:49:52;;;;;;;;;;;;;;;-144.99;86.19;52672.31;5091923;28;20355;-69
2021/12/27 10:52:19;;;;;;;;;;;;;;;-144.99;86.34;52684.53;5096852;28;19958;-69
2021/12/27 10:54:47;;;;;;;;;;;;;;;-144.99;86.96;52682.50;5098498;28;19927;-69
2021/12/27 10:57:14;;;;;;;;;;;;;;;-144.99;86.74;52676.38;5096560;28;20004;-70
2021/12/27 10:59:40;;;;;;;;;;;;;;;-144.99;86.46;52704.94;5100376;28;19920;-70
2021/12/27 11:02:13;;;;;;;104.72;55.85;;;;;;;-144.99;86.17;52696.78;5100283;28;24530;-70
2021/12/27 11:04:40;;;;;;;;;;;;;;;-144.99;86.13;52704.94;5100719;28;20272;-71
2021/12/27 11:07:07;;;;;;;;;;;;;;;-144.99;86.35;52635.63;5100567;28;19920;-70
2021/12/27 11:09:34;;;;;;;;;;;;;;;-144.99;86.52;52684.53;5093008;28;19920;-70
2021/12/27 11:12:02;;;;;;;;;;;;;;;-144.99;87.04;52684.53;5091440;28;19934;-69
2021/12/27 11:14:29;;;;;;;;;;;;;;;-144.99;86.95;52684.53;5091026;28;19920;-69
2021/12/27 11:16:55;;;;;;;;;;;;;;;-144.99;86.54;52704.94;5092313;28;19931;-69
2021/12/27 11:19:22;;;;;;;;;;;;;;;-144.99;87.16;52651.94;5094614;28;20411;-69
2021/12/27 11:21:49;;;;;;;;;;;;;;;-144.99;86.91;52647.84;5097649;28;19920;-69
2021/12/27 11:24:16;;;;;;;;;;;;;;;-144.99;86.98;52692.69;5094545;28;19927;-70
2021/12/27 11:26:44;;;;;;;;;;;;;;;-144.99;87.81;52635.63;5092565;28;19923;-69
2021/12/27 11:29:12;;;;;;;;;;;;;;;-144.99;87.65;52668.22;5089075;28;20185;-69
2021/12/27 11:31:39;;;;;;;;;;;;;;;-144.99;88.06;52700.84;5091515;28;20296;-69
2021/12/27 11:34:06;;;;;;;;;;;;;;;-144.99;88.50;52696.78;5091325;28;20017;-69
2021/12/27 11:36:34;;;;;;;;;;;;;;;-144.99;88.23;52643.78;5089121;28;19924;-69
2021/12/27 11:39:17;;;;;;;;;;;;;;;-144.99;88.45;52668.22;5091043;28;19920;-69
2021/12/27 11:41:43;;;;;;;;;;;;;;;-144.99;89.26;52670.28;5090049;28;20018;-69
2021/12/27 11:44:12;;;;;;;;;;;;;;;-144.99;88.91;52651.94;5092292;28;20391;-70
2021/12/27 11:46:58;;;;;;;;;;;;;;;-144.99;89.05;52660.09;5093264;28;19980;-69
2021/12/27 11:49:46;;;;;;;;;;;;;;;-144.99;88.27;52686.59;5088443;28;19974;-70
2021/12/27 11:52:15;;;;;;;;;;;;;;;-144.99;88.02;52704.94;5090649;28;20288;-69
2021/12/27 11:54:48;;;;;;;;;;;;;;;-144.99;88.44;52684.53;5091212;28;20355;-69
2021/12/27 11:57:37;;;;;;;;;;;;;;;-144.99;88.56;52688.63;5090427;28;19924;-68
2021/12/27 12:00:29;;;;;;;;;;;;;;;-144.99;88.33;52672.31;5088660;28;19928;-69
2021/12/27 12:03:07;;;;;;;;;;;;;;;-144.99;88.39;52641.72;5087308;28;19934;-69
2021/12/27 12:05:38;;;;;;;;;;;;;;;-144.99;88.88;52651.94;5089473;28;19924;-69
2021/12/27 12:08:05;;;;;;;;;;;;;;;-144.99;89.11;52688.63;5092113;28;20006;-70
2021/12/27 12:10:32;;;;;;;;;;;;;;;-144.99;88.77;52664.16;5091760;28;19970;-68
2021/12/27 12:13:18;;;;;;;;;;;;;;;-144.99;88.78;52676.38;5085631;28;19932;-69
2021/12/27 12:15:58;;;;;;;;;;;;;;;-144.99;88.37;52692.69;5085173;28;19920;-70
2021/12/27 12:18:26;;;;;;;;;;;;;;;-144.99;88.40;52674.34;5085519;28;20202;-69
2021/12/27 12:20:52;;;;;;;;;;;;;;;-144.99;88.18;52678.44;5082782;28;19920;-70
2021/12/27 12:23:18;;;;;;;;;;;;;;;-144.99;88.10;52676.38;5084328;28;19927;-70
2021/12/27 12:25:45;;;;;;;;;;;;;;;-144.99;88.74;52653.97;5085287;28;19931;-69
2021/12/27 12:28:12;;;;;;;;;;;;;;;-144.99;88.93;52656.00;5087262;28;19920;-69
2021/12/27 12:30:39;;;;;;;;;;;;;;;-144.99;88.24;52676.38;5084325;28;19919;-68